sensor_id;sensor_type;location;lat;lon;timestamp;temperature;humidity
15409;DHT22;7803;48.130;13.788;2023-02-23T00:00:20;23.00;68.90
15409;DHT22;7803;48.130;13.788;2023-02-23T00:03:27;23.00;68.90
15409;DHT22;7803;48.130;13.788;2023-02-23T00:06:32;23.00;68.90
15409;DHT22;7803;48.130;13.788;2023-02-23T00:09:35;23.00;68.90
15409;DHT22;7803;48.130;13.788;2023-02-23T00:12:37;23.00;69.00
15409;DHT22;7803;48.130;13.788;2023-02-23T00:15:40;23.00;69.00
15409;DHT22;7803;48.130;13.788;2023-02-23T00:18:43;23.00;69.00
15409;DHT22;7803;48.130;13.788;2023-02-23T00:21:47;23.00;69.00
15409;DHT22;7803;48.130;13.788;2023-02-23T00:24:50;23.00;69.00
15409;DHT22;7803;48.130;13.788;2023-02-23T00:27:52;23.00;69.00
15409;DHT22;7803;48.130;13.788;2023-02-23T00:30:56;23.00;69.00
15409;DHT22;7803;48.130;13.788;2023-02-23T00:34:00;23.00;69.00
15409;DHT22;7803;48.130;13.788;2023-02-23T00:37:02;22.90;69.00
15409;DHT22;7803;48.130;13.788;2023-02-23T00:40:05;22.90;68.90
15409;DHT22;7803;48.130;13.788;2023-02-23T00:43:14;22.90;69.00
15409;DHT22;7803;48.130;13.788;2023-02-23T00:46:20;22.90;69.10
15409;DHT22;7803;48.130;13.788;2023-02-23T00:49:23;22.90;69.30
15409;DHT22;7803;48.130;13.788;2023-02-23T00:52:25;22.90;69.10
15409;DHT22;7803;48.130;13.788;2023-02-23T00:55:28;22.90;69.10
15409;DHT22;7803;48.130;13.788;2023-02-23T00:58:31;22.90;69.10
15409;DHT22;7803;48.130;13.788;2023-02-23T01:01:34;22.90;69.10
15409;DHT22;7803;48.130;13.788;2023-02-23T01:04:38;22.90;69.10
15409;DHT22;7803;48.130;13.788;2023-02-23T01:07:40;22.80;69.00
15409;DHT22;7803;48.130;13.788;2023-02-23T01:10:43;22.90;69.00
15409;DHT22;7803;48.130;13.788;2023-02-23T01:13:53;22.80;68.90
15409;DHT22;7803;48.130;13.788;2023-02-23T01:16:57;22.90;69.10
15409;DHT22;7803;48.130;13.788;2023-02-23T01:19:59;22.80;69.10
15409;DHT22;7803;48.130;13.788;2023-02-23T01:23:02;22.80;69.00
15409;DHT22;7803;48.130;13.788;2023-02-23T01:26:04;22.80;69.10
15409;DHT22;7803;48.130;13.788;2023-02-23T01:29:08;22.80;69.10
15409;DHT22;7803;48.130;13.788;2023-02-23T01:32:12;22.80;69.10
15409;DHT22;7803;48.130;13.788;2023-02-23T01:35:14;22.80;69.10
15409;DHT22;7803;48.130;13.788;2023-02-23T01:38:16;22.80;69.10
15409;DHT22;7803;48.130;13.788;2023-02-23T01:41:19;22.80;69.00
15409;DHT22;7803;48.130;13.788;2023-02-23T01:48:05;22.80;69.00
15409;DHT22;7803;48.130;13.788;2023-02-23T01:51:11;22.80;68.90
15409;DHT22;7803;48.130;13.788;2023-02-23T01:54:17;22.80;69.10
15409;DHT22;7803;48.130;13.788;2023-02-23T01:57:22;22.80;69.10
15409;DHT22;7803;48.130;13.788;2023-02-23T02:00:27;22.70;69.00
15409;DHT22;7803;48.130;13.788;2023-02-23T02:03:36;22.70;69.00
15409;DHT22;7803;48.130;13.788;2023-02-23T02:06:39;22.80;69.10
15409;DHT22;7803;48.130;13.788;2023-02-23T02:09:42;22.70;69.00
15409;DHT22;7803;48.130;13.788;2023-02-23T02:13:06;22.70;68.90
15409;DHT22;7803;48.130;13.788;2023-02-23T02:24:07;22.70;68.90
15409;DHT22;7803;48.130;13.788;2023-02-23T02:27:23;22.70;69.80
15409;DHT22;7803;48.130;13.788;2023-02-23T02:30:55;22.70;68.90
15409;DHT22;7803;48.130;13.788;2023-02-23T02:34:30;22.70;68.90
15409;DHT22;7803;48.130;13.788;2023-02-23T02:37:46;22.70;68.90
15409;DHT22;7803;48.130;13.788;2023-02-23T02:40:53;22.70;69.00
15409;DHT22;7803;48.130;13.788;2023-02-23T02:44:01;22.70;69.00
15409;DHT22;7803;48.130;13.788;2023-02-23T02:47:08;22.70;68.90
15409;DHT22;7803;48.130;13.788;2023-02-23T02:50:16;22.70;68.90
15409;DHT22;7803;48.130;13.788;2023-02-23T02:53:25;22.70;68.80
15409;DHT22;7803;48.130;13.788;2023-02-23T02:56:30;22.70;68.90
15409;DHT22;7803;48.130;13.788;2023-02-23T02:59:41;22.70;68.80
15409;DHT22;7803;48.130;13.788;2023-02-23T03:03:01;22.70;68.90
15409;DHT22;7803;48.130;13.788;2023-02-23T03:06:25;22.60;68.90
15409;DHT22;7803;48.130;13.788;2023-02-23T03:09:52;22.60;68.90
15409;DHT22;7803;48.130;13.788;2023-02-23T03:13:17;22.60;68.90
15409;DHT22;7803;48.130;13.788;2023-02-23T03:16:49;22.60;68.90
15409;DHT22;7803;48.130;13.788;2023-02-23T03:20:21;22.60;68.90
15409;DHT22;7803;48.130;13.788;2023-02-23T03:23:49;22.60;68.80
15409;DHT22;7803;48.130;13.788;2023-02-23T03:27:19;22.60;68.80
15409;DHT22;7803;48.130;13.788;2023-02-23T03:30:47;22.60;68.80
15409;DHT22;7803;48.130;13.788;2023-02-23T03:34:11;22.60;68.80
15409;DHT22;7803;48.130;13.788;2023-02-23T03:37:37;22.60;68.90
15409;DHT22;7803;48.130;13.788;2023-02-23T03:40:59;22.60;68.90
15409;DHT22;7803;48.130;13.788;2023-02-23T03:44:24;22.60;68.90
15409;DHT22;7803;48.130;13.788;2023-02-23T03:47:46;22.60;68.90
15409;DHT22;7803;48.130;13.788;2023-02-23T03:51:08;22.60;68.90
15409;DHT22;7803;48.130;13.788;2023-02-23T03:54:33;22.60;68.90
15409;DHT22;7803;48.130;13.788;2023-02-23T03:57:56;22.50;68.90
15409;DHT22;7803;48.130;13.788;2023-02-23T04:01:20;22.50;68.80
15409;DHT22;7803;48.130;13.788;2023-02-23T04:04:40;22.50;68.80
15409;DHT22;7803;48.130;13.788;2023-02-23T04:08:02;22.60;68.80
15409;DHT22;7803;48.130;13.788;2023-02-23T04:11:27;22.50;68.80
15409;DHT22;7803;48.130;13.788;2023-02-23T04:14:54;22.60;68.80
15409;DHT22;7803;48.130;13.788;2023-02-23T04:17:58;22.50;68.80
15409;DHT22;7803;48.130;13.788;2023-02-23T04:21:01;22.50;68.90
15409;DHT22;7803;48.130;13.788;2023-02-23T04:24:04;22.60;68.90
15409;DHT22;7803;48.130;13.788;2023-02-23T04:27:06;22.50;68.90
15409;DHT22;7803;48.130;13.788;2023-02-23T04:30:10;22.50;68.90
15409;DHT22;7803;48.130;13.788;2023-02-23T04:33:14;22.50;68.80
15409;DHT22;7803;48.130;13.788;2023-02-23T04:36:16;22.60;68.90
15409;DHT22;7803;48.130;13.788;2023-02-23T04:39:18;22.50;68.80
15409;DHT22;7803;48.130;13.788;2023-02-23T04:42:20;22.50;68.80
15409;DHT22;7803;48.130;13.788;2023-02-23T04:45:24;22.50;68.80
15409;DHT22;7803;48.130;13.788;2023-02-23T04:48:27;22.60;68.80
15409;DHT22;7803;48.130;13.788;2023-02-23T04:51:29;22.50;68.80
15409;DHT22;7803;48.130;13.788;2023-02-23T04:54:36;22.60;68.70
15409;DHT22;7803;48.130;13.788;2023-02-23T04:57:39;22.60;68.60
15409;DHT22;7803;48.130;13.788;2023-02-23T05:00:41;22.60;68.50
15409;DHT22;7803;48.130;13.788;2023-02-23T05:03:45;22.70;68.60
15409;DHT22;7803;48.130;13.788;2023-02-23T05:06:47;22.70;68.50
15409;DHT22;7803;48.130;13.788;2023-02-23T05:09:49;22.70;68.50
15409;DHT22;7803;48.130;13.788;2023-02-23T05:12:51;22.70;68.40
15409;DHT22;7803;48.130;13.788;2023-02-23T05:15:55;22.70;68.40
15409;DHT22;7803;48.130;13.788;2023-02-23T05:18:59;22.70;68.40
15409;DHT22;7803;48.130;13.788;2023-02-23T05:22:01;22.70;68.30
15409;DHT22;7803;48.130;13.788;2023-02-23T05:25:04;22.80;68.30
15409;DHT22;7803;48.130;13.788;2023-02-23T05:28:07;22.80;68.20
15409;DHT22;7803;48.130;13.788;2023-02-23T05:31:10;22.80;68.20
15409;DHT22;7803;48.130;13.788;2023-02-23T05:34:14;22.80;68.10
15409;DHT22;7803;48.130;13.788;2023-02-23T05:37:16;22.90;68.10
15409;DHT22;7803;48.130;13.788;2023-02-23T05:40:19;22.90;68.10
15409;DHT22;7803;48.130;13.788;2023-02-23T05:43:21;22.90;68.90
15409;DHT22;7803;48.130;13.788;2023-02-23T05:46:25;22.90;68.00
15409;DHT22;7803;48.130;13.788;2023-02-23T05:49:29;22.90;68.00
15409;DHT22;7803;48.130;13.788;2023-02-23T05:52:31;22.90;67.90
15409;DHT22;7803;48.130;13.788;2023-02-23T05:55:35;23.00;68.00
15409;DHT22;7803;48.130;13.788;2023-02-23T05:58:37;22.90;67.90
15409;DHT22;7803;48.130;13.788;2023-02-23T06:01:39;23.00;67.90
15409;DHT22;7803;48.130;13.788;2023-02-23T06:04:42;23.00;67.90
15409;DHT22;7803;48.130;13.788;2023-02-23T06:07:44;23.00;67.90
15409;DHT22;7803;48.130;13.788;2023-02-23T06:10:47;23.00;67.90
15409;DHT22;7803;48.130;13.788;2023-02-23T06:13:49;23.00;67.80
15409;DHT22;7803;48.130;13.788;2023-02-23T06:16:52;23.00;67.80
15409;DHT22;7803;48.130;13.788;2023-02-23T06:19:55;23.00;67.80
15409;DHT22;7803;48.130;13.788;2023-02-23T06:22:58;23.10;67.80
15409;DHT22;7803;48.130;13.788;2023-02-23T06:26:00;23.10;67.70
15409;DHT22;7803;48.130;13.788;2023-02-23T06:29:03;23.10;67.70
15409;DHT22;7803;48.130;13.788;2023-02-23T06:32:05;23.10;67.70
15409;DHT22;7803;48.130;13.788;2023-02-23T06:35:09;23.10;67.80
15409;DHT22;7803;48.130;13.788;2023-02-23T06:38:11;23.10;67.70
15409;DHT22;7803;48.130;13.788;2023-02-23T06:41:13;23.10;67.70
15409;DHT22;7803;48.130;13.788;2023-02-23T06:44:15;23.10;67.70
15409;DHT22;7803;48.130;13.788;2023-02-23T06:47:17;23.10;67.70
15409;DHT22;7803;48.130;13.788;2023-02-23T06:50:20;23.20;67.70
15409;DHT22;7803;48.130;13.788;2023-02-23T06:53:23;23.10;67.60
15409;DHT22;7803;48.130;13.788;2023-02-23T06:56:25;23.10;67.60
15409;DHT22;7803;48.130;13.788;2023-02-23T06:59:27;23.20;67.70
15409;DHT22;7803;48.130;13.788;2023-02-23T07:02:30;23.10;67.60
15409;DHT22;7803;48.130;13.788;2023-02-23T07:05:33;23.20;67.60
15409;DHT22;7803;48.130;13.788;2023-02-23T07:08:35;23.20;67.60
15409;DHT22;7803;48.130;13.788;2023-02-23T07:11:39;23.20;67.60
15409;DHT22;7803;48.130;13.788;2023-02-23T07:14:44;23.10;67.60
15409;DHT22;7803;48.130;13.788;2023-02-23T07:17:46;23.20;67.60
15409;DHT22;7803;48.130;13.788;2023-02-23T07:20:50;23.20;67.70
15409;DHT22;7803;48.130;13.788;2023-02-23T07:23:52;23.20;67.60
15409;DHT22;7803;48.130;13.788;2023-02-23T07:26:54;23.20;67.60
15409;DHT22;7803;48.130;13.788;2023-02-23T07:29:56;23.20;67.60
15409;DHT22;7803;48.130;13.788;2023-02-23T07:32:58;23.20;67.60
15409;DHT22;7803;48.130;13.788;2023-02-23T07:36:02;23.20;67.60
15409;DHT22;7803;48.130;13.788;2023-02-23T07:39:04;23.20;67.60
15409;DHT22;7803;48.130;13.788;2023-02-23T07:42:06;23.30;67.60
15409;DHT22;7803;48.130;13.788;2023-02-23T07:45:09;23.30;67.60
15409;DHT22;7803;48.130;13.788;2023-02-23T07:48:11;23.20;67.60
15409;DHT22;7803;48.130;13.788;2023-02-23T07:51:15;23.30;67.70
15409;DHT22;7803;48.130;13.788;2023-02-23T07:54:17;23.30;67.70
15409;DHT22;7803;48.130;13.788;2023-02-23T07:57:19;23.30;67.60
15409;DHT22;7803;48.130;13.788;2023-02-23T08:00:22;23.30;67.60
15409;DHT22;7803;48.130;13.788;2023-02-23T08:03:24;23.30;67.60
15409;DHT22;7803;48.130;13.788;2023-02-23T08:06:29;23.30;67.60
15409;DHT22;7803;48.130;13.788;2023-02-23T08:09:31;23.30;67.60
15409;DHT22;7803;48.130;13.788;2023-02-23T08:12:34;23.30;67.60
15409;DHT22;7803;48.130;13.788;2023-02-23T08:15:36;23.30;67.60
15409;DHT22;7803;48.130;13.788;2023-02-23T08:18:38;23.30;67.60
15409;DHT22;7803;48.130;13.788;2023-02-23T08:21:42;23.30;67.70
15409;DHT22;7803;48.130;13.788;2023-02-23T08:24:44;23.30;67.70
15409;DHT22;7803;48.130;13.788;2023-02-23T08:27:47;23.30;67.70
15409;DHT22;7803;48.130;13.788;2023-02-23T08:30:51;23.30;67.70
15409;DHT22;7803;48.130;13.788;2023-02-23T08:33:54;23.30;67.70
15409;DHT22;7803;48.130;13.788;2023-02-23T08:36:57;23.30;67.70
15409;DHT22;7803;48.130;13.788;2023-02-23T08:39:59;23.30;67.70
15409;DHT22;7803;48.130;13.788;2023-02-23T08:43:01;23.30;67.70
15409;DHT22;7803;48.130;13.788;2023-02-23T08:46:04;23.30;67.70
15409;DHT22;7803;48.130;13.788;2023-02-23T08:49:06;23.30;67.80
15409;DHT22;7803;48.130;13.788;2023-02-23T08:52:11;23.30;67.80
15409;DHT22;7803;48.130;13.788;2023-02-23T08:55:14;23.30;67.90
15409;DHT22;7803;48.130;13.788;2023-02-23T08:58:17;23.30;67.80
15409;DHT22;7803;48.130;13.788;2023-02-23T09:01:20;23.30;67.90
15409;DHT22;7803;48.130;13.788;2023-02-23T09:04:22;23.30;67.80
15409;DHT22;7803;48.130;13.788;2023-02-23T09:07:25;23.30;67.80
15409;DHT22;7803;48.130;13.788;2023-02-23T09:10:27;23.30;67.90
15409;DHT22;7803;48.130;13.788;2023-02-23T09:13:30;23.30;67.90
15409;DHT22;7803;48.130;13.788;2023-02-23T09:16:32;23.30;67.90
15409;DHT22;7803;48.130;13.788;2023-02-23T09:19:35;23.30;67.90
15409;DHT22;7803;48.130;13.788;2023-02-23T09:22:38;23.30;67.90
15409;DHT22;7803;48.130;13.788;2023-02-23T09:25:42;23.30;67.90
15409;DHT22;7803;48.130;13.788;2023-02-23T09:28:45;23.30;67.90
15409;DHT22;7803;48.130;13.788;2023-02-23T09:31:47;23.30;67.90
15409;DHT22;7803;48.130;13.788;2023-02-23T09:34:50;23.30;67.90
15409;DHT22;7803;48.130;13.788;2023-02-23T09:37:55;23.30;67.90
15409;DHT22;7803;48.130;13.788;2023-02-23T09:40:57;23.30;67.90
15409;DHT22;7803;48.130;13.788;2023-02-23T09:44:02;23.40;68.00
15409;DHT22;7803;48.130;13.788;2023-02-23T09:47:17;23.40;68.00
15409;DHT22;7803;48.130;13.788;2023-02-23T09:50:24;23.40;68.00
15409;DHT22;7803;48.130;13.788;2023-02-23T09:53:34;23.30;67.90
15409;DHT22;7803;48.130;13.788;2023-02-23T09:56:39;23.40;68.00
15409;DHT22;7803;48.130;13.788;2023-02-23T09:59:42;23.40;68.00
15409;DHT22;7803;48.130;13.788;2023-02-23T10:03:06;23.40;68.00
15409;DHT22;7803;48.130;13.788;2023-02-23T10:06:13;23.40;68.10
15409;DHT22;7803;48.130;13.788;2023-02-23T10:09:26;23.40;68.10
15409;DHT22;7803;48.130;13.788;2023-02-23T10:12:33;23.40;68.10
15409;DHT22;7803;48.130;13.788;2023-02-23T10:15:41;23.40;68.10
15409;DHT22;7803;48.130;13.788;2023-02-23T10:18:50;23.30;68.00
15409;DHT22;7803;48.130;13.788;2023-02-23T10:22:00;23.40;68.10
15409;DHT22;7803;48.130;13.788;2023-02-23T10:25:09;23.40;68.10
15409;DHT22;7803;48.130;13.788;2023-02-23T10:28:15;23.40;68.10
15409;DHT22;7803;48.130;13.788;2023-02-23T10:31:30;23.40;68.10
15409;DHT22;7803;48.130;13.788;2023-02-23T10:34:34;23.40;68.10
15409;DHT22;7803;48.130;13.788;2023-02-23T10:37:37;23.40;68.30
15409;DHT22;7803;48.130;13.788;2023-02-23T10:40:42;23.40;68.20
15409;DHT22;7803;48.130;13.788;2023-02-23T10:43:45;23.40;68.30
15409;DHT22;7803;48.130;13.788;2023-02-23T10:46:52;23.30;68.20
15409;DHT22;7803;48.130;13.788;2023-02-23T10:49:56;23.40;68.30
15409;DHT22;7803;48.130;13.788;2023-02-23T10:53:02;23.30;68.30
15409;DHT22;7803;48.130;13.788;2023-02-23T10:56:08;23.40;68.30
15409;DHT22;7803;48.130;13.788;2023-02-23T10:59:17;23.40;68.30
15409;DHT22;7803;48.130;13.788;2023-02-23T11:02:23;23.40;68.30
15409;DHT22;7803;48.130;13.788;2023-02-23T11:05:34;23.40;68.30
15409;DHT22;7803;48.130;13.788;2023-02-23T11:08:37;23.40;68.30
15409;DHT22;7803;48.130;13.788;2023-02-23T11:11:40;23.40;68.40
15409;DHT22;7803;48.130;13.788;2023-02-23T11:14:56;23.40;68.40
15409;DHT22;7803;48.130;13.788;2023-02-23T11:18:00;23.40;68.40
15409;DHT22;7803;48.130;13.788;2023-02-23T11:21:09;23.40;68.40
15409;DHT22;7803;48.130;13.788;2023-02-23T11:24:16;23.40;68.40
15409;DHT22;7803;48.130;13.788;2023-02-23T11:27:23;23.40;68.40
15409;DHT22;7803;48.130;13.788;2023-02-23T11:30:32;23.40;68.50
15409;DHT22;7803;48.130;13.788;2023-02-23T11:33:38;23.40;68.50
15409;DHT22;7803;48.130;13.788;2023-02-23T11:36:40;23.40;68.40
15409;DHT22;7803;48.130;13.788;2023-02-23T11:39:50;23.40;68.40
15409;DHT22;7803;48.130;13.788;2023-02-23T11:42:55;23.40;68.40
15409;DHT22;7803;48.130;13.788;2023-02-23T11:45:59;23.40;68.40
15409;DHT22;7803;48.130;13.788;2023-02-23T11:49:04;23.40;68.40
15409;DHT22;7803;48.130;13.788;2023-02-23T11:52:12;23.40;68.40
15409;DHT22;7803;48.130;13.788;2023-02-23T11:55:17;23.40;68.40
15409;DHT22;7803;48.130;13.788;2023-02-23T11:58:24;23.40;68.40
15409;DHT22;7803;48.130;13.788;2023-02-23T12:01:39;23.40;68.40
15409;DHT22;7803;48.130;13.788;2023-02-23T12:04:44;23.40;68.50
15409;DHT22;7803;48.130;13.788;2023-02-23T12:07:53;23.40;68.60
15409;DHT22;7803;48.130;13.788;2023-02-23T12:10:58;23.40;68.50
15409;DHT22;7803;48.130;13.788;2023-02-23T12:14:06;23.40;68.50
15409;DHT22;7803;48.130;13.788;2023-02-23T12:17:17;23.40;68.50
15409;DHT22;7803;48.130;13.788;2023-02-23T12:20:22;23.40;68.60
15409;DHT22;7803;48.130;13.788;2023-02-23T12:23:30;23.40;68.60
15409;DHT22;7803;48.130;13.788;2023-02-23T12:26:39;23.40;68.60
15409;DHT22;7803;48.130;13.788;2023-02-23T12:29:58;23.40;68.60
15409;DHT22;7803;48.130;13.788;2023-02-23T12:33:03;23.40;68.60
15409;DHT22;7803;48.130;13.788;2023-02-23T12:36:15;23.40;68.60
15409;DHT22;7803;48.130;13.788;2023-02-23T12:39:23;23.40;68.60
15409;DHT22;7803;48.130;13.788;2023-02-23T12:42:36;23.40;68.70
15409;DHT22;7803;48.130;13.788;2023-02-23T12:45:45;23.40;68.60
15409;DHT22;7803;48.130;13.788;2023-02-23T12:48:59;23.40;68.70
15409;DHT22;7803;48.130;13.788;2023-02-23T12:52:08;23.40;68.60
15409;DHT22;7803;48.130;13.788;2023-02-23T12:55:15;23.40;68.60
15409;DHT22;7803;48.130;13.788;2023-02-23T12:58:26;23.40;68.70
15409;DHT22;7803;48.130;13.788;2023-02-23T13:01:34;23.40;68.70
15409;DHT22;7803;48.130;13.788;2023-02-23T13:08:21;23.40;68.70
15409;DHT22;7803;48.130;13.788;2023-02-23T13:11:41;23.40;68.80
15409;DHT22;7803;48.130;13.788;2023-02-23T13:14:52;23.40;68.70
15409;DHT22;7803;48.130;13.788;2023-02-23T13:18:04;23.30;68.70
15409;DHT22;7803;48.130;13.788;2023-02-23T13:21:10;23.40;68.80
15409;DHT22;7803;48.130;13.788;2023-02-23T13:24:18;23.40;68.80
15409;DHT22;7803;48.130;13.788;2023-02-23T13:27:25;23.40;68.80
15409;DHT22;7803;48.130;13.788;2023-02-23T13:30:29;23.40;68.80
15409;DHT22;7803;48.130;13.788;2023-02-23T13:33:34;23.40;68.80
15409;DHT22;7803;48.130;13.788;2023-02-23T13:36:38;23.40;68.80
15409;DHT22;7803;48.130;13.788;2023-02-23T13:39:51;23.40;68.80
15409;DHT22;7803;48.130;13.788;2023-02-23T13:43:02;23.40;68.80
15409;DHT22;7803;48.130;13.788;2023-02-23T13:46:23;23.40;68.80
15409;DHT22;7803;48.130;13.788;2023-02-23T13:49:36;23.40;68.80
15409;DHT22;7803;48.130;13.788;2023-02-23T13:52:40;23.30;68.70
15409;DHT22;7803;48.130;13.788;2023-02-23T13:55:47;23.40;68.80
15409;DHT22;7803;48.130;13.788;2023-02-23T13:58:53;23.40;68.80
15409;DHT22;7803;48.130;13.788;2023-02-23T14:01:59;23.40;68.80
15409;DHT22;7803;48.130;13.788;2023-02-23T14:05:06;23.40;68.80
15409;DHT22;7803;48.130;13.788;2023-02-23T14:08:21;23.40;68.80
15409;DHT22;7803;48.130;13.788;2023-02-23T14:11:29;23.30;68.70
15409;DHT22;7803;48.130;13.788;2023-02-23T14:14:41;23.40;68.80
15409;DHT22;7803;48.130;13.788;2023-02-23T14:17:55;23.40;68.80
15409;DHT22;7803;48.130;13.788;2023-02-23T14:21:04;23.40;68.80
15409;DHT22;7803;48.130;13.788;2023-02-23T14:24:18;23.40;68.80
15409;DHT22;7803;48.130;13.788;2023-02-23T14:27:22;23.40;68.80
15409;DHT22;7803;48.130;13.788;2023-02-23T14:30:26;23.40;68.80
15409;DHT22;7803;48.130;13.788;2023-02-23T14:33:37;23.40;68.80
15409;DHT22;7803;48.130;13.788;2023-02-23T14:36:51;23.40;68.80
15409;DHT22;7803;48.130;13.788;2023-02-23T14:40:00;23.40;68.80
15409;DHT22;7803;48.130;13.788;2023-02-23T14:43:29;23.40;68.80
15409;DHT22;7803;48.130;13.788;2023-02-23T14:46:32;23.40;68.80
15409;DHT22;7803;48.130;13.788;2023-02-23T14:49:42;23.30;68.80
15409;DHT22;7803;48.130;13.788;2023-02-23T14:52:46;23.40;68.80
15409;DHT22;7803;48.130;13.788;2023-02-23T14:55:49;23.40;68.80
15409;DHT22;7803;48.130;13.788;2023-02-23T14:58:53;23.40;68.90
15409;DHT22;7803;48.130;13.788;2023-02-23T15:01:58;23.40;68.90
15409;DHT22;7803;48.130;13.788;2023-02-23T15:05:13;23.40;68.90
15409;DHT22;7803;48.130;13.788;2023-02-23T15:08:19;23.40;68.90
15409;DHT22;7803;48.130;13.788;2023-02-23T15:11:23;23.40;68.80
15409;DHT22;7803;48.130;13.788;2023-02-23T15:14:25;23.40;68.80
15409;DHT22;7803;48.130;13.788;2023-02-23T15:17:31;23.40;68.80
15409;DHT22;7803;48.130;13.788;2023-02-23T15:20:34;23.40;68.80
15409;DHT22;7803;48.130;13.788;2023-02-23T15:23:37;23.40;68.80
15409;DHT22;7803;48.130;13.788;2023-02-23T15:26:40;23.40;68.80
15409;DHT22;7803;48.130;13.788;2023-02-23T15:29:43;23.40;68.80
15409;DHT22;7803;48.130;13.788;2023-02-23T15:32:45;23.40;68.80
15409;DHT22;7803;48.130;13.788;2023-02-23T15:35:51;23.40;68.90
15409;DHT22;7803;48.130;13.788;2023-02-23T15:38:57;23.40;68.80
15409;DHT22;7803;48.130;13.788;2023-02-23T15:42:02;23.40;68.80
15409;DHT22;7803;48.130;13.788;2023-02-23T15:45:13;23.40;68.80
15409;DHT22;7803;48.130;13.788;2023-02-23T15:48:18;23.30;68.80
15409;DHT22;7803;48.130;13.788;2023-02-23T15:51:30;23.40;68.80
15409;DHT22;7803;48.130;13.788;2023-02-23T15:54:37;23.40;68.80
15409;DHT22;7803;48.130;13.788;2023-02-23T15:57:46;23.40;68.70
15409;DHT22;7803;48.130;13.788;2023-02-23T16:00:53;23.40;68.70
15409;DHT22;7803;48.130;13.788;2023-02-23T16:04:00;23.40;68.70
15409;DHT22;7803;48.130;13.788;2023-02-23T16:07:08;23.40;68.70
15409;DHT22;7803;48.130;13.788;2023-02-23T16:10:21;23.40;68.80
15409;DHT22;7803;48.130;13.788;2023-02-23T16:13:24;23.40;68.70
15409;DHT22;7803;48.130;13.788;2023-02-23T16:16:27;23.40;68.70
15409;DHT22;7803;48.130;13.788;2023-02-23T16:19:29;23.40;68.70
15409;DHT22;7803;48.130;13.788;2023-02-23T16:22:32;23.40;68.80
15409;DHT22;7803;48.130;13.788;2023-02-23T16:25:36;23.40;68.80
15409;DHT22;7803;48.130;13.788;2023-02-23T16:28:41;23.40;68.70
15409;DHT22;7803;48.130;13.788;2023-02-23T16:31:46;23.40;68.70
15409;DHT22;7803;48.130;13.788;2023-02-23T16:34:50;23.40;68.70
15409;DHT22;7803;48.130;13.788;2023-02-23T16:37:59;23.50;68.80
15409;DHT22;7803;48.130;13.788;2023-02-23T16:41:04;23.40;68.70
15409;DHT22;7803;48.130;13.788;2023-02-23T16:44:13;23.40;68.70
15409;DHT22;7803;48.130;13.788;2023-02-23T16:47:42;23.40;68.70
15409;DHT22;7803;48.130;13.788;2023-02-23T16:50:47;23.40;68.80
15409;DHT22;7803;48.130;13.788;2023-02-23T16:53:50;23.40;68.80
15409;DHT22;7803;48.130;13.788;2023-02-23T16:56:54;23.40;68.80
15409;DHT22;7803;48.130;13.788;2023-02-23T16:59:56;23.40;68.80
15409;DHT22;7803;48.130;13.788;2023-02-23T17:03:00;23.40;68.70
15409;DHT22;7803;48.130;13.788;2023-02-23T17:06:05;23.40;68.70
15409;DHT22;7803;48.130;13.788;2023-02-23T17:09:07;23.40;68.70
15409;DHT22;7803;48.130;13.788;2023-02-23T17:12:12;23.40;68.70
15409;DHT22;7803;48.130;13.788;2023-02-23T17:15:18;23.40;68.70
15409;DHT22;7803;48.130;13.788;2023-02-23T17:18:23;23.40;68.80
15409;DHT22;7803;48.130;13.788;2023-02-23T17:21:27;23.40;68.80
15409;DHT22;7803;48.130;13.788;2023-02-23T17:24:29;23.40;68.80
15409;DHT22;7803;48.130;13.788;2023-02-23T17:27:33;23.40;68.80
15409;DHT22;7803;48.130;13.788;2023-02-23T17:30:36;23.40;68.80
15409;DHT22;7803;48.130;13.788;2023-02-23T17:33:40;23.40;68.80
15409;DHT22;7803;48.130;13.788;2023-02-23T17:36:43;23.40;68.80
15409;DHT22;7803;48.130;13.788;2023-02-23T17:39:46;23.40;68.70
15409;DHT22;7803;48.130;13.788;2023-02-23T17:42:51;23.40;68.60
15409;DHT22;7803;48.130;13.788;2023-02-23T17:45:54;23.40;68.70
15409;DHT22;7803;48.130;13.788;2023-02-23T17:48:57;23.40;68.60
15409;DHT22;7803;48.130;13.788;2023-02-23T17:51:59;23.40;68.60
15409;DHT22;7803;48.130;13.788;2023-02-23T17:55:03;23.40;68.60
15409;DHT22;7803;48.130;13.788;2023-02-23T17:58:08;23.40;68.60
15409;DHT22;7803;48.130;13.788;2023-02-23T18:01:14;23.40;68.60
15409;DHT22;7803;48.130;13.788;2023-02-23T18:04:17;23.40;68.60
15409;DHT22;7803;48.130;13.788;2023-02-23T18:07:21;23.40;68.60
15409;DHT22;7803;48.130;13.788;2023-02-23T18:10:24;23.50;68.70
15409;DHT22;7803;48.130;13.788;2023-02-23T18:13:28;23.50;68.70
15409;DHT22;7803;48.130;13.788;2023-02-23T18:16:33;23.50;68.70
15409;DHT22;7803;48.130;13.788;2023-02-23T18:19:36;23.40;68.60
15409;DHT22;7803;48.130;13.788;2023-02-23T18:22:40;23.50;68.60
15409;DHT22;7803;48.130;13.788;2023-02-23T18:25:43;23.50;68.60
15409;DHT22;7803;48.130;13.788;2023-02-23T18:28:48;23.50;68.60
15409;DHT22;7803;48.130;13.788;2023-02-23T18:31:51;23.50;68.60
15409;DHT22;7803;48.130;13.788;2023-02-23T18:34:55;23.50;68.60
15409;DHT22;7803;48.130;13.788;2023-02-23T18:37:59;23.50;68.60
15409;DHT22;7803;48.130;13.788;2023-02-23T18:41:04;23.50;69.40
15409;DHT22;7803;48.130;13.788;2023-02-23T18:44:12;23.50;68.60
15409;DHT22;7803;48.130;13.788;2023-02-23T18:47:15;23.50;68.60
15409;DHT22;7803;48.130;13.788;2023-02-23T18:50:25;23.50;68.60
15409;DHT22;7803;48.130;13.788;2023-02-23T18:53:28;23.50;68.00
15409;DHT22;7803;48.130;13.788;2023-02-23T18:56:30;23.50;68.50
15409;DHT22;7803;48.130;13.788;2023-02-23T18:59:35;23.50;68.50
15409;DHT22;7803;48.130;13.788;2023-02-23T19:02:39;23.50;68.60
15409;DHT22;7803;48.130;13.788;2023-02-23T19:05:43;23.60;68.60
15409;DHT22;7803;48.130;13.788;2023-02-23T19:08:51;23.50;68.50
15409;DHT22;7803;48.130;13.788;2023-02-23T19:11:57;23.60;68.60
15409;DHT22;7803;48.130;13.788;2023-02-23T19:15:05;23.50;68.60
15409;DHT22;7803;48.130;13.788;2023-02-23T19:18:09;23.50;68.50
15409;DHT22;7803;48.130;13.788;2023-02-23T19:21:16;23.50;68.50
15409;DHT22;7803;48.130;13.788;2023-02-23T19:24:22;23.50;68.50
15409;DHT22;7803;48.130;13.788;2023-02-23T19:27:26;23.60;68.60
15409;DHT22;7803;48.130;13.788;2023-02-23T19:30:30;23.50;68.50
15409;DHT22;7803;48.130;13.788;2023-02-23T19:33:33;23.60;68.60
15409;DHT22;7803;48.130;13.788;2023-02-23T19:36:37;23.60;68.60
15409;DHT22;7803;48.130;13.788;2023-02-23T19:39:41;23.60;68.60
15409;DHT22;7803;48.130;13.788;2023-02-23T19:42:47;23.60;68.60
15409;DHT22;7803;48.130;13.788;2023-02-23T19:45:54;23.60;68.60
15409;DHT22;7803;48.130;13.788;2023-02-23T19:48:58;23.50;68.50
15409;DHT22;7803;48.130;13.788;2023-02-23T19:52:01;23.60;68.60